Time;durP1;ratioP1;P1;durP2;ratioP2;P2;SDS_P1;SDS_P2;PMS_P1;PMS_P2;Temp;Humidity;BMP_temperature;BMP_pressure;BME280_temperature;BME280_humidity;BME280_pressure;Samples;Min_cycle;Max_cycle;Signal;HPM_P1;HPM_P2
2022/01/09 00:01:03;;;;;;;37.00;5.18;;;;;;;4.01;100.00;98459.63;4957781;23;20027;-76
2022/01/09 00:03:29;;;;;;;30.15;4.68;;;;;;;4.69;100.00;98571.44;4951844;29;20059;-73
2022/01/09 00:05:59;;;;;;;35.60;4.82;;;;;;;4.68;100.00;98590.72;4950825;29;20372;-75
2022/01/09 00:08:25;;;;;;;39.63;4.93;;;;;;;4.64;100.00;98589.38;4957022;23;20051;-77
2022/01/09 00:10:55;;;;;;;37.42;6.07;;;;;;;4.55;100.00;98598.09;4936997;29;20054;-75
2022/01/09 00:13:25;;;;;;;32.47;5.70;;;;;;;4.70;100.00;98604.47;4918109;29;20041;-74
2022/01/09 00:15:50;;;;;;;32.35;5.88;;;;;;;4.47;100.00;98574.50;5309287;23;20218;-80
2022/01/09 00:18:18;;;;;;;37.45;5.20;;;;;;;4.24;100.00;98563.66;4940039;29;20047;-78
2022/01/09 00:20:44;;;;;;;37.85;4.53;;;;;;;4.53;100.00;98593.03;4927656;29;20044;-71
2022/01/09 00:23:10;;;;;;;30.45;4.13;;;;;;;4.49;100.00;98609.16;4910235;29;20032;-71
2022/01/09 00:25:36;;;;;;;30.10;4.00;;;;;;;4.51;100.00;98622.91;4910886;29;20020;-75
2022/01/09 00:28:02;;;;;;;35.78;5.55;;;;;;;4.56;100.00;98629.31;4927584;29;20031;-72
2022/01/09 00:30:28;;;;;;;36.63;5.45;;;;;;;4.28;100.00;98583.31;4939842;29;20038;-73
2022/01/09 00:32:53;;;;;;;36.78;4.15;;;;;;;4.48;100.00;98620.59;4937309;29;20134;-74
2022/01/09 00:35:20;;;;;;;32.13;3.88;;;;;;;4.50;100.00;98611.63;4924705;29;20046;-73
2022/01/09 00:37:45;;;;;;;45.10;4.40;;;;;;;4.59;100.00;98634.25;4940646;29;20027;-74
2022/01/09 00:40:12;;;;;;;38.30;4.00;;;;;;;4.63;100.00;98642.59;4926028;29;20484;-74
2022/01/09 00:42:38;;;;;;;31.27;4.03;;;;;;;4.66;100.00;98628.44;4942795;29;20019;-74
2022/01/09 00:45:06;;;;;;;29.55;4.00;;;;;;;4.43;100.00;98628.03;4938332;29;20023;-75
2022/01/09 00:47:32;;;;;;;38.42;4.80;;;;;;;4.59;100.00;98644.72;4942887;29;20033;-72
2022/01/09 00:49:59;;;;;;;34.20;4.72;;;;;;;4.43;100.00;98630.63;4956960;29;20027;-73
2022/01/09 00:52:24;;;;;;;29.60;4.47;;;;;;;4.30;100.00;98603.09;4941447;29;20024;-72
2022/01/09 00:54:52;;;;;;;27.35;3.45;;;;;;;4.34;100.00;98614.91;4944041;29;20402;-73
2022/01/09 00:57:18;;;;;;;25.92;4.00;;;;;;;4.42;100.00;98642.06;4925128;29;20031;-73
2022/01/09 00:59:44;;;;;;;25.88;4.05;;;;;;;4.38;100.00;98636.31;4941188;29;20111;-74
2022/01/09 01:02:10;;;;;;;36.03;4.18;;;;;;;4.55;100.00;98674.72;4925254;29;20063;-72
2022/01/09 01:04:41;;;;;;;31.40;4.68;;;;;;;4.57;100.00;98698.13;4958093;29;20027;-74
2022/01/09 01:07:10;;;;;;;26.58;4.43;;;;;;;4.30;100.00;98646.69;4942852;29;20042;-73
2022/01/09 01:09:36;;;;;;;30.80;4.57;;;;;;;4.37;100.00;98666.84;4957128;29;20031;-75
2022/01/09 01:12:02;;;;;;;33.25;3.60;;;;;;;4.29;100.00;98640.66;4940951;29;20020;-74
2022/01/09 01:14:29;;;;;;;29.67;4.20;;;;;;;4.45;100.00;98681.81;4957079;28;20042;-74
2022/01/09 01:16:55;;;;;;;29.92;4.35;;;;;;;4.59;100.00;98709.25;4958066;29;20090;-74
2022/01/09 01:19:21;;;;;;;28.90;4.25;;;;;;;4.43;100.00;98694.19;4952143;29;20429;-73
2022/01/09 01:21:47;;;;;;;29.48;4.05;;;;;;;4.58;100.00;98704.97;4924912;29;20070;-74
2022/01/09 01:24:13;;;;;;;28.85;4.22;;;;;;;4.52;100.00;98706.41;4937020;29;20027;-73
2022/01/09 01:26:39;;;;;;;28.38;3.88;;;;;;;4.56;100.00;98710.34;4920848;29;20060;-73
2022/01/09 01:29:05;;;;;;;38.70;3.83;;;;;;;4.56;100.00;98719.97;4962207;29;20030;-73
2022/01/09 01:31:31;;;;;;;26.55;3.92;;;;;;;4.46;100.00;98701.75;4948713;29;20032;-74
2022/01/09 01:33:56;;;;;;;30.02;4.90;;;;;;;4.54;100.00;98717.53;4959203;29;20027;-73
2022/01/09 01:36:22;;;;;;;30.08;3.50;;;;;;;4.56;100.00;98753.97;4923538;29;20038;-73
2022/01/09 01:38:47;;;;;;;37.10;4.15;;;;;;;4.53;100.00;98741.19;4939452;29;20103;-74
2022/01/09 01:41:13;;;;;;;31.98;3.55;;;;;;;4.59;100.00;98758.91;4938776;29;20055;-74
2022/01/09 01:43:38;;;;;;;27.83;3.60;;;;;;;4.65;100.00;98762.72;4956276;29;20041;-74
2022/01/09 01:46:04;;;;;;;27.15;3.53;;;;;;;4.57;100.00;98766.06;4938491;29;20027;-73
2022/01/09 01:48:30;;;;;;;32.13;4.43;;;;;;;4.50;100.00;98744.09;4938614;29;20050;-73
2022/01/09 01:50:56;;;;;;;25.02;3.58;;;;;;;4.49;100.00;98764.16;4955803;29;20138;-73
2022/01/09 01:53:24;;;;;;;25.05;3.80;;;;;;;4.56;100.00;98780.09;4955802;29;20031;-74
2022/01/09 01:55:54;;;;;;;32.35;3.88;;;;;;;4.70;100.00;98799.69;4938593;29;20035;-73
2022/01/09 01:58:20;;;;;;;26.85;3.50;;;;;;;4.55;100.00;98788.91;4922912;29;20024;-73
2022/01/09 02:00:46;;;;;;;24.88;3.30;;;;;;;4.35;100.00;98767.25;4938209;29;20027;-73
2022/01/09 02:03:12;;;;;;;23.75;3.38;;;;;;;4.56;100.00;98814.91;4955940;29;20382;-73
2022/01/09 02:05:44;;;;;;;27.83;3.47;;;;;;;4.39;100.00;98772.06;4938172;29;20478;-73
2022/01/09 02:08:10;;;;;;;26.52;4.03;;;;;;;4.54;100.00;98803.78;4938279;29;20070;-73
2022/01/09 02:10:40;;;;;;;27.73;3.60;;;;;;;4.43;100.00;98790.06;4956321;29;20252;-74
2022/01/09 02:13:40;;;;;;;32.65;3.63;;;;;;;4.71;100.00;98809.22;4940737;29;20086;-75
2022/01/09 02:16:07;;;;;;;30.83;3.83;;;;;;;4.53;100.00;98783.81;4858200;29;20038;-73
2022/01/09 02:18:33;;;;;;;31.77;4.05;;;;;;;4.64;100.00;98806.34;4843912;29;20041;-73
2022/01/09 02:20:59;;;;;;;29.52;4.22;;;;;;;4.62;100.00;98813.50;4843531;29;20054;-73
2022/01/09 02:23:25;;;;;;;22.77;4.45;;;;;;;4.58;100.00;98820.00;4858986;29;20030;-73
2022/01/09 02:25:51;;;;;;;32.20;4.93;;;;;;;4.71;100.00;98830.13;4843684;29;20037;-73
2022/01/09 02:28:17;;;;;;;31.52;3.83;;;;;;;4.55;100.00;98826.34;4859482;29;20551;-72
2022/01/09 02:30:46;;;;;;;24.25;3.83;;;;;;;4.50;100.00;98830.34;4843797;29;20041;-73
2022/01/09 02:33:16;;;;;;;23.10;4.13;;;;;;;4.47;100.00;98838.47;4844022;29;20041;-73
2022/01/09 02:35:42;;;;;;;25.15;4.18;;;;;;;4.59;100.00;98845.19;4861266;29;20536;-75
2022/01/09 02:38:08;;;;;;;26.30;3.50;;;;;;;4.46;100.00;98866.41;4843076;29;20037;-73
2022/01/09 02:40:34;;;;;;;22.15;2.83;;;;;;;4.16;100.00;98867.44;4842813;29;20428;-73
2022/01/09 02:42:59;;;;;;;23.55;2.80;;;;;;;4.21;100.00;98885.28;4859177;29;20461;-74
2022/01/09 02:45:27;;;;;;;25.77;3.22;;;;;;;4.14;100.00;98871.97;4858759;29;20070;-73
2022/01/09 02:47:57;;;;;;;22.88;2.83;;;;;;;4.10;100.00;98884.47;4843177;29;20034;-74
2022/01/09 02:52:55;;;;;;;22.65;3.50;;;;;;;4.15;100.00;98879.66;4889490;29;20047;-74
2022/01/09 02:55:22;;;;;;;22.00;3.70;;;;;;;4.13;100.00;98891.19;4954711;29;20063;-74
2022/01/09 02:57:53;;;;;;;24.55;3.50;;;;;;;4.26;100.00;98893.53;4955016;29;20462;-74
2022/01/09 03:00:23;;;;;;;21.95;3.50;;;;;;;4.23;100.00;98899.88;4954889;29;20032;-74
2022/01/09 03:02:49;;;;;;;21.45;4.07;;;;;;;3.86;100.00;98856.19;4922941;29;20042;-74
2022/01/09 03:05:15;;;;;;;24.95;3.40;;;;;;;4.08;100.00;98881.16;4959937;29;20031;-74
2022/01/09 03:07:42;;;;;;;16.45;2.80;;;;;;;4.27;100.00;98916.91;4941361;29;20051;-74
2022/01/09 03:10:09;;;;;;;19.08;2.92;;;;;;;4.17;100.00;98908.25;4956606;29;20045;-74
2022/01/09 03:12:36;;;;;;;19.77;2.90;;;;;;;4.24;100.00;98927.63;4954839;29;20110;-73
2022/01/09 03:15:04;;;;;;;18.88;3.13;;;;;;;4.26;100.00;98930.13;4937093;29;20064;-74
2022/01/09 03:17:30;;;;;;;19.17;2.47;;;;;;;4.23;100.00;98926.00;4954172;29;20051;-74
2022/01/09 03:19:56;;;;;;;22.83;2.88;;;;;;;4.09;100.00;98906.34;5383612;23;20080;-74
2022/01/09 03:22:21;;;;;;;15.57;2.92;;;;;;;4.17;100.00;98929.97;4916813;29;20107;-74
2022/01/09 03:24:49;;;;;;;20.45;3.35;;;;;;;3.93;100.00;98893.03;4899380;29;20036;-73
2022/01/09 03:27:15;;;;;;;21.00;2.83;;;;;;;4.26;100.00;98964.06;4899035;29;20036;-74
2022/01/09 03:29:40;;;;;;;24.40;3.20;;;;;;;4.08;100.00;98932.59;4916150;29;20079;-74
2022/01/09 03:32:07;;;;;;;25.60;3.15;;;;;;;3.94;100.00;98941.66;4915863;29;20107;-74
2022/01/09 03:34:33;;;;;;;20.13;2.65;;;;;;;3.94;100.00;98946.88;4915629;29;20031;-73
2022/01/09 03:36:58;;;;;;;17.60;2.90;;;;;;;4.15;100.00;98983.31;4915513;29;20371;-73
2022/01/09 03:39:24;;;;;;;19.02;2.90;;;;;;;4.17;100.00;98984.84;4898825;29;20382;-74
2022/01/09 03:41:49;;;;;;;19.45;2.97;;;;;;;4.24;100.00;98986.91;4883179;29;20493;-73
2022/01/09 03:44:15;;;;;;;21.92;3.00;;;;;;;4.22;100.00;98987.03;4898807;29;20024;-73
2022/01/09 03:46:41;;;;;;;24.08;2.65;;;;;;;4.26;100.00;98983.19;4915871;29;20126;-73
2022/01/09 03:49:06;;;;;;;23.60;2.85;;;;;;;4.25;100.00;98994.63;4898761;29;20031;-73
2022/01/09 03:51:36;;;;;;;17.95;2.90;;;;;;;4.22;100.00;98988.81;4916063;29;20032;-72
2022/01/09 03:54:04;;;;;;;20.65;2.65;;;;;;;4.15;100.00;99014.66;4899041;29;20079;-74
2022/01/09 03:56:30;;;;;;;25.98;2.83;;;;;;;4.18;100.00;98986.50;4916320;29;20419;-73
2022/01/09 03:58:55;;;;;;;13.75;2.53;;;;;;;4.01;100.00;98978.50;4916019;29;20032;-73
2022/01/09 04:01:21;;;;;;;17.83;2.63;;;;;;;4.19;100.00;99013.44;4899966;29;20067;-74
2022/01/09 04:03:46;;;;;;;17.25;2.38;;;;;;;4.17;100.00;99012.75;4915520;29;20132;-74
2022/01/09 04:06:12;;;;;;;17.27;2.72;;;;;;;4.17;100.00;99017.97;4915726;29;20030;-74
2022/01/09 04:08:38;;;;;;;15.75;2.50;;;;;;;4.03;100.00;98997.47;4915851;29;20036;-73
2022/01/09 04:11:05;;;;;;;22.10;2.65;;;;;;;3.90;100.00;98990.72;4899197;29;20219;-73
2022/01/09 04:13:31;;;;;;;15.23;2.08;;;;;;;4.10;100.00;99022.09;4883593;29;20483;-73
2022/01/09 04:15:58;;;;;;;22.67;2.80;;;;;;;3.98;100.00;99050.94;4899119;29;20474;-73
2022/01/09 04:18:24;;;;;;;17.63;2.72;;;;;;;3.96;100.00;99047.63;4898843;29;20032;-73
2022/01/09 04:20:51;;;;;;;22.30;2.88;;;;;;;3.94;100.00;99041.72;4913648;29;20487;-73
2022/01/09 04:23:18;;;;;;;19.23;2.45;;;;;;;4.03;100.00;99041.88;4918008;29;20079;-73
2022/01/09 04:25:45;;;;;;;18.95;2.72;;;;;;;3.87;100.00;99022.34;4918126;29;20074;-73
2022/01/09 04:28:12;;;;;;;21.85;2.85;;;;;;;4.03;100.00;99060.16;4902417;29;20478;-73
2022/01/09 04:30:37;;;;;;;26.23;2.78;;;;;;;3.91;100.00;99057.66;4917622;29;20053;-74
2022/01/09 04:33:04;;;;;;;21.73;2.95;;;;;;;3.98;100.00;99069.22;4917990;29;20107;-74
2022/01/09 04:35:29;;;;;;;18.38;3.08;;;;;;;4.01;100.00;99080.38;4901909;29;20114;-72
2022/01/09 04:37:55;;;;;;;24.30;3.10;;;;;;;3.95;100.00;99079.09;4902238;29;20086;-73
2022/01/09 04:40:21;;;;;;;28.13;2.65;;;;;;;3.93;100.00;99091.50;4917779;29;20020;-74
2022/01/09 04:45:17;;;;;;;21.70;2.58;;;;;;;3.97;100.00;99078.03;4917479;29;20482;-73
2022/01/09 04:47:47;;;;;;;18.63;2.60;;;;;;;4.06;100.00;99083.41;4901616;29;20028;-73
2022/01/09 04:50:18;;;;;;;17.58;2.38;;;;;;;3.75;100.00;99047.72;4905065;29;20036;-73
2022/01/09 04:52:45;;;;;;;17.33;2.42;;;;;;;4.04;100.00;99106.22;4920987;29;20065;-72
2022/01/09 04:55:11;;;;;;;19.88;3.10;;;;;;;3.97;100.00;99087.63;4905613;29;20024;-73
2022/01/09 04:57:36;;;;;;;19.60;2.33;;;;;;;4.02;100.00;99115.97;4905448;29;20115;-74
2022/01/09 05:00:06;;;;;;;16.73;2.28;;;;;;;3.93;100.00;99110.59;4921174;29;20115;-73
2022/01/09 05:02:32;;;;;;;15.55;2.63;;;;;;;4.04;100.00;99121.88;4920950;29;20128;-73
2022/01/09 05:04:58;;;;;;;16.77;2.15;;;;;;;3.98;100.00;99121.47;4905202;29;20062;-72
2022/01/09 05:07:23;;;;;;;16.75;2.30;;;;;;;3.81;100.00;99101.19;4938591;29;20028;-72
2022/01/09 05:09:49;;;;;;;13.95;2.47;;;;;;;3.93;100.00;99126.25;4921952;29;20038;-73
2022/01/09 05:12:15;;;;;;;23.08;2.28;;;;;;;3.87;100.00;99110.28;4922162;29;20031;-72
2022/01/09 05:14:40;;;;;;;16.08;2.42;;;;;;;4.04;100.00;99130.53;4938833;29;20024;-73
2022/01/09 05:17:06;;;;;;;19.63;2.58;;;;;;;4.05;100.00;99139.22;4921611;29;20038;-73
2022/01/09 05:19:33;;;;;;;13.18;1.92;;;;;;;3.75;100.00;99127.84;4920980;29;20134;-73
2022/01/09 05:22:00;;;;;;;15.73;2.80;;;;;;;3.98;100.00;99154.59;4904823;29;20032;-72
2022/01/09 05:24:26;;;;;;;14.90;2.30;;;;;;;3.81;100.00;99132.53;4920727;29;20042;-72
2022/01/09 05:26:52;;;;;;;17.67;3.00;;;;;;;3.87;100.00;99149.47;4937292;29;20102;-73
2022/01/09 05:29:17;;;;;;;19.40;2.60;;;;;;;3.83;100.00;99146.28;4937236;29;20053;-73
2022/01/09 05:31:44;;;;;;;17.85;2.45;;;;;;;3.97;100.00;99165.97;4919930;29;20390;-73
2022/01/09 05:34:09;;;;;;;15.23;2.10;;;;;;;3.97;100.00;99184.25;4937036;29;20076;-73
2022/01/09 05:36:36;;;;;;;16.33;2.10;;;;;;;4.01;100.00;99175.22;4919997;29;20079;-73
2022/01/09 05:39:03;;;;;;;17.52;2.20;;;;;;;4.00;100.00;99185.78;4919968;29;20028;-73
2022/01/09 05:41:29;;;;;;;18.27;2.30;;;;;;;4.04;100.00;99197.63;4919824;29;20106;-74
2022/01/09 05:43:55;;;;;;;18.58;2.75;;;;;;;4.06;100.00;99195.72;4904519;29;20028;-74
2022/01/09 05:46:21;;;;;;;18.40;2.72;;;;;;;3.98;100.00;99194.59;4920006;29;20102;-73
2022/01/09 05:48:49;;;;;;;16.60;2.03;;;;;;;4.00;100.00;99191.00;4904254;29;20028;-73
2022/01/09 05:51:16;;;;;;;12.75;2.05;;;;;;;3.66;100.00;99178.22;4919281;29;20035;-73
2022/01/09 05:53:42;;;;;;;16.95;2.40;;;;;;;3.49;100.00;99185.66;4936924;29;20040;-72
2022/01/09 05:56:08;;;;;;;17.08;2.30;;;;;;;3.84;100.00;99207.16;4920039;29;20102;-73
2022/01/09 05:58:35;;;;;;;18.33;2.42;;;;;;;3.69;100.00;99184.00;4919692;29;20036;-73
2022/01/09 06:01:03;;;;;;;15.82;2.50;;;;;;;3.71;100.00;99217.81;4903611;29;20047;-71
2022/01/09 06:03:29;;;;;;;13.30;2.30;;;;;;;3.75;100.00;99227.88;4919732;29;20096;-71
2022/01/09 06:05:55;;;;;;;14.05;2.42;;;;;;;3.87;100.00;99214.75;4919905;29;20032;-70
2022/01/09 06:08:20;;;;;;;14.63;2.10;;;;;;;3.67;100.00;99213.81;4903969;29;20063;-71
2022/01/09 06:10:46;;;;;;;15.18;2.90;;;;;;;3.70;100.00;99209.16;4903881;29;20127;-71
2022/01/09 06:13:12;;;;;;;13.63;2.28;;;;;;;3.65;100.00;99218.31;4919546;29;20082;-72
2022/01/09 06:15:38;;;;;;;15.77;2.05;;;;;;;3.45;100.00;99233.03;4903539;29;20023;-71
2022/01/09 06:18:04;;;;;;;16.90;2.30;;;;;;;3.42;100.00;99239.31;4919640;29;20107;-73
2022/01/09 06:20:35;;;;;;;15.77;2.15;;;;;;;3.63;100.00;99241.09;4919835;29;20055;-72
2022/01/09 06:23:01;;;;;;;14.57;1.90;;;;;;;3.28;100.00;99257.91;4888534;29;20505;-71
2022/01/09 06:25:27;;;;;;;13.10;2.08;;;;;;;3.10;100.00;99262.81;4903694;29;20035;-73
2022/01/09 06:27:52;;;;;;;15.38;1.70;;;;;;;3.26;100.00;99263.22;4936798;29;20339;-72
2022/01/09 06:30:18;;;;;;;12.60;1.90;;;;;;;3.13;100.00;99234.72;4937746;29;20037;-72
2022/01/09 06:32:43;;;;;;;12.68;2.17;;;;;;;3.35;100.00;99270.31;4936134;29;20040;-73
2022/01/09 06:35:10;;;;;;;9.70;1.60;;;;;;;3.36;100.00;99263.28;4919039;29;20030;-73
2022/01/09 06:37:36;;;;;;;14.25;1.85;;;;;;;3.25;100.00;99266.81;4902817;29;20115;-72
2022/01/09 06:40:03;;;;;;;9.35;1.50;;;;;;;3.39;100.00;99294.38;4903110;29;20162;-71
2022/01/09 06:42:29;;;;;;;9.75;1.83;;;;;;;3.31;100.00;99289.75;4918833;29;20024;-72
2022/01/09 06:44:54;;;;;;;9.98;1.77;;;;;;;3.37;100.00;99285.84;4919037;29;20120;-71
2022/01/09 06:47:20;;;;;;;8.50;1.88;;;;;;;3.34;100.00;99296.53;4935930;29;20032;-71
2022/01/09 06:49:46;;;;;;;9.65;1.60;;;;;;;3.15;100.00;99299.78;4918311;29;20035;-72
2022/01/09 06:52:11;;;;;;;10.57;1.77;;;;;;;3.20;100.00;99305.44;4918808;29;20047;-70
2022/01/09 06:54:37;;;;;;;11.55;1.90;;;;;;;3.30;100.00;99309.00;4919066;29;20106;-72
2022/01/09 06:57:03;;;;;;;13.88;1.65;;;;;;;3.39;100.00;99304.00;4935839;29;20066;-72
2022/01/09 06:59:29;;;;;;;10.90;2.20;;;;;;;3.27;100.00;99317.06;4918264;29;20385;-72
2022/01/09 07:01:55;;;;;;;12.70;2.03;;;;;;;3.42;100.00;99319.41;4918456;29;20166;-72
2022/01/09 07:04:20;;;;;;;12.70;1.90;;;;;;;3.25;100.00;99294.69;4918118;29;20436;-72
2022/01/09 07:06:46;;;;;;;12.43;2.20;;;;;;;3.20;100.00;99321.09;4935522;29;20028;-72
2022/01/09 07:09:12;;;;;;;16.13;2.28;;;;;;;3.15;100.00;99315.44;4902761;29;20028;-72
2022/01/09 07:11:37;;;;;;;11.20;1.85;;;;;;;3.09;100.00;99313.34;4935300;29;20095;-72
2022/01/09 07:14:03;;;;;;;15.25;2.25;;;;;;;3.11;100.00;99306.19;4935583;29;20050;-72
2022/01/09 07:16:32;;;;;;;15.25;2.15;;;;;;;3.28;100.00;99333.56;4935213;29;20019;-75
2022/01/09 07:18:59;;;;;;;15.80;2.03;;;;;;;3.23;100.00;99330.50;4933848;29;20091;-76
2022/01/09 07:21:27;;;;;;;19.85;2.53;;;;;;;2.96;100.00;99307.44;4942658;29;20513;-84
2022/01/09 07:23:53;;;;;;;14.27;2.40;;;;;;;3.00;100.00;99306.22;4948330;29;20443;-82
2022/01/09 07:26:20;;;;;;;17.70;2.28;;;;;;;3.13;100.00;99331.22;4914051;29;20103;-80
2022/01/09 07:28:46;;;;;;;19.40;3.13;;;;;;;3.02;100.00;99299.94;4930164;29;20027;-80
2022/01/09 07:31:11;;;;;;;14.23;2.55;;;;;;;3.07;100.00;99347.34;4948170;29;20055;-80
2022/01/09 07:33:39;;;;;;;16.52;3.65;;;;;;;3.11;100.00;99343.56;4933892;29;20052;-81
2022/01/09 07:36:05;;;;;;;13.35;2.22;;;;;;;3.19;100.00;99371.63;4933092;29;20114;-81
2022/01/09 07:38:30;;;;;;;21.75;2.60;;;;;;;3.37;100.00;99374.56;4925300;29;20118;-77
2022/01/09 07:40:57;;;;;;;19.45;2.50;;;;;;;3.40;100.00;99368.25;4934845;29;20019;-75
2022/01/09 07:43:23;;;;;;;21.40;2.42;;;;;;;2.92;100.00;99340.72;4936299;29;20042;-78
2022/01/09 07:45:49;;;;;;;19.35;2.72;;;;;;;2.87;100.00;99358.53;4941504;29;20024;-79
2022/01/09 07:48:14;;;;;;;16.05;2.60;;;;;;;3.00;100.00;99367.03;4912021;29;20476;-80
2022/01/09 07:50:41;;;;;;;22.48;2.55;;;;;;;3.19;100.00;99408.16;4956210;23;20453;-81
2022/01/09 07:53:06;;;;;;;12.88;1.98;;;;;;;3.30;100.00;99412.53;4950330;28;20046;-80
2022/01/09 07:55:34;;;;;;;13.15;1.90;;;;;;;3.11;100.00;99389.66;4949679;28;20062;-81
2022/01/09 07:57:59;;;;;;;16.75;2.47;;;;;;;3.28;100.00;99380.50;4980592;28;20089;-78
2022/01/09 08:00:27;;;;;;;11.10;1.65;;;;;;;3.22;100.00;99381.81;4964395;28;20060;-79
2022/01/09 08:02:55;;;;;;;13.43;2.20;;;;;;;2.96;100.00;99375.22;4930743;28;20126;-77
2022/01/09 08:05:21;;;;;;;7.05;1.27;;;;;;;2.97;100.00;99401.16;4977302;28;20077;-80
2022/01/09 08:07:51;;;;;;;11.60;1.70;;;;;;;3.11;100.00;99408.75;4963629;28;20122;-79
2022/01/09 08:10:19;;;;;;;14.07;2.08;;;;;;;2.90;100.00;99387.78;4964034;28;20081;-80
2022/01/09 08:12:45;;;;;;;11.95;2.53;;;;;;;3.07;100.00;99412.56;4964949;28;20109;-78
2022/01/09 08:15:14;;;;;;;15.35;1.83;;;;;;;2.96;100.00;99399.53;4950658;28;20559;-80
2022/01/09 08:17:49;;;;;;;11.85;1.90;;;;;;;2.79;100.00;99406.03;4967275;28;20035;-79
2022/01/09 08:20:16;;;;;;;15.45;2.42;;;;;;;3.16;100.00;99421.44;4942801;28;20038;-78
2022/01/09 08:22:43;;;;;;;18.20;2.33;;;;;;;3.01;100.00;99409.59;5099451;23;20055;-76
2022/01/09 08:25:12;;;;;;;21.08;2.58;;;;;;;3.07;100.00;99424.78;4963927;28;20066;-75
2022/01/09 08:27:38;;;;;;;26.75;4.65;;;;;;;2.91;100.00;99441.59;4971424;28;20034;-80
2022/01/09 08:30:08;;;;;;;19.45;4.13;;;;;;;3.10;100.00;99453.22;4966238;28;20169;-77
2022/01/09 08:32:38;;;;;;;22.15;4.00;;;;;;;3.09;100.00;99452.38;4960803;28;20393;-77
2022/01/09 08:35:07;;;;;;;14.45;2.90;;;;;;;3.15;100.00;99456.28;4946022;28;20026;-78
2022/01/09 08:37:41;;;;;;;15.20;3.58;;;;;;;3.15;100.00;99448.47;4948654;28;20038;-75
2022/01/09 08:40:10;;;;;;;21.85;5.40;;;;;;;3.17;100.00;99454.38;4956622;28;20027;-76
2022/01/09 08:42:40;;;;;;;9.90;2.10;;;;;;;3.27;100.00;99449.28;4955651;28;20014;-77
2022/01/09 08:45:07;;;;;;;17.10;2.70;;;;;;;3.26;100.00;99471.94;4966234;28;20085;-76
2022/01/09 08:47:37;;;;;;;34.15;9.38;;;;;;;3.04;100.00;99456.28;4945262;28;20031;-79
2022/01/09 08:50:06;;;;;;;19.90;4.97;;;;;;;3.33;100.00;99461.84;4958825;28;20035;-78
2022/01/09 08:52:32;;;;;;;19.38;5.70;;;;;;;3.50;100.00;99466.59;4960472;28;20232;-77
2022/01/09 08:54:58;;;;;;;19.13;2.80;;;;;;;3.71;100.00;99500.59;4955061;28;20345;-75
2022/01/09 08:57:25;;;;;;;24.13;2.97;;;;;;;3.62;100.00;99511.78;4970652;28;20027;-76
2022/01/09 08:59:52;;;;;;;18.75;3.35;;;;;;;3.83;100.00;99490.94;4974031;28;20049;-76
2022/01/09 09:02:24;;;;;;;15.40;2.40;;;;;;;3.75;100.00;99494.19;4939450;28;20033;-78
2022/01/09 09:04:50;;;;;;;22.15;4.43;;;;;;;3.81;100.00;99503.31;4962975;28;20107;-75
2022/01/09 09:07:18;;;;;;;16.60;3.78;;;;;;;3.95;100.00;99502.19;4965658;28;20444;-80
2022/01/09 09:09:45;;;;;;;21.08;7.55;;;;;;;3.88;100.00;99494.03;4961463;28;20029;-77
2022/01/09 09:12:13;;;;;;;19.00;3.20;;;;;;;3.64;100.00;99457.66;4975062;28;20414;-78
2022/01/09 09:14:39;;;;;;;20.25;3.42;;;;;;;3.84;100.00;99502.22;4956520;29;20035;-77
2022/01/09 09:17:05;;;;;;;17.05;2.63;;;;;;;3.60;100.00;99474.50;4975525;28;20437;-75
2022/01/09 09:19:31;;;;;;;13.55;2.63;;;;;;;3.77;100.00;99522.81;4957961;28;20334;-75
2022/01/09 09:21:57;;;;;;;17.90;2.53;;;;;;;3.84;100.00;99494.38;4952234;28;20454;-74
2022/01/09 09:24:22;;;;;;;13.60;2.40;;;;;;;3.59;100.00;99487.69;4969194;28;20133;-74
2022/01/09 09:26:48;;;;;;;14.90;3.08;;;;;;;3.76;100.00;99488.00;4937654;28;20397;-74
2022/01/09 09:29:14;;;;;;;18.40;3.33;;;;;;;4.22;100.00;99522.66;4969007;28;20106;-74
2022/01/09 09:31:46;;;;;;;19.13;4.35;;;;;;;4.15;100.00;99477.91;4954586;28;20047;-76
2022/01/09 09:34:12;;;;;;;23.85;3.50;;;;;;;3.98;100.00;99520.25;4958453;28;20370;-74
2022/01/09 09:36:38;;;;;;;31.42;5.85;;;;;;;4.10;100.00;99498.34;4945228;28;20744;-77
2022/01/09 09:39:05;;;;;;;24.33;4.53;;;;;;;4.35;100.00;99533.78;4967407;28;20027;-74
2022/01/09 09:41:31;;;;;;;18.15;3.80;;;;;;;4.39;100.00;99548.25;4960393;28;20096;-74
2022/01/09 09:43:57;;;;;;;18.33;2.60;;;;;;;4.10;100.00;99548.00;4969587;28;20019;-74
2022/01/09 09:46:24;;;;;;;15.88;2.30;;;;;;;3.91;100.00;99521.69;4971247;28;20113;-75
2022/01/09 09:48:55;;;;;;;22.70;3.25;;;;;;;4.05;100.00;99563.22;4955349;28;20066;-75
2022/01/09 09:51:25;;;;;;;20.23;2.58;;;;;;;3.93;100.00;99543.31;4974488;28;20046;-75
2022/01/09 09:53:52;;;;;;;12.80;2.42;;;;;;;3.84;100.00;99534.41;4978935;28;20121;-78
2022/01/09 09:56:17;;;;;;;17.50;3.08;;;;;;;4.11;100.00;99561.88;4974216;28;20031;-77
2022/01/09 09:58:47;;;;;;;16.35;2.55;;;;;;;4.03;100.00;99553.84;4975658;28;20126;-78
2022/01/09 10:01:31;;;;;;;23.10;2.80;;;;;;;3.85;100.00;99527.41;4974106;28;20027;-77
2022/01/09 10:04:07;;;;;;;23.52;3.75;;;;;;;4.42;100.00;99556.81;4963412;28;20019;-77
2022/01/09 10:06:44;;;;;;;19.65;2.25;;;;;;;4.40;100.00;99564.78;4974682;28;20489;-75
2022/01/09 10:09:21;;;;;;;17.63;2.55;;;;;;;4.51;100.00;99576.97;4972677;28;20496;-77
2022/01/09 10:11:50;;;;;;;15.57;2.95;;;;;;;4.29;100.00;99570.88;4954906;29;20023;-73
2022/01/09 10:14:19;;;;;;;22.75;3.35;;;;;;;4.34;100.00;99563.50;4955540;28;20027;-75
2022/01/09 10:17:21;;;;;;;15.65;2.38;;;;;;;4.55;100.00;99583.63;4945193;28;20022;-72
2022/01/09 10:19:58;;;;;;;17.98;2.78;;;;;;;4.70;100.00;99568.44;4975670;28;20113;-72
2022/01/09 10:22:36;;;;;;;22.02;2.85;;;;;;;4.67;100.00;99573.94;4945860;28;20069;-72
2022/01/09 10:25:17;;;;;;;16.77;2.30;;;;;;;4.42;100.00;99580.34;4954632;29;20039;-73
2022/01/09 10:27:44;;;;;;;11.55;2.20;;;;;;;4.72;100.00;99584.84;4936978;29;20062;-72
2022/01/09 10:30:10;;;;;;;16.75;2.50;;;;;;;4.46;100.00;99576.53;4937317;29;20065;-73
2022/01/09 10:32:37;;;;;;;14.30;2.38;;;;;;;4.49;100.00;99563.19;4910874;29;20020;-72
2022/01/09 10:35:21;;;;;;;14.40;2.35;;;;;;;4.47;100.00;99593.84;4926967;29;20114;-72
2022/01/09 10:37:49;;;;;;;17.13;2.55;;;;;;;4.48;100.00;99592.91;4907493;29;20427;-72
2022/01/09 10:40:23;;;;;;;15.68;2.35;;;;;;;4.71;100.00;99563.09;4916318;29;20146;-72
2022/01/09 10:43:13;;;;;;;14.40;2.50;;;;;;;5.02;100.00;99605.06;4933886;29;20085;-72
2022/01/09 10:45:42;;;;;;;17.95;2.78;;;;;;;4.84;100.00;99581.25;4928792;29;20054;-72
2022/01/09 10:48:12;;;;;;;15.55;2.53;;;;;;;4.96;100.00;99610.78;4910376;29;20042;-73
2022/01/09 10:50:41;;;;;;;18.40;3.00;;;;;;;4.97;100.00;99610.66;4930221;29;20537;-74
2022/01/09 10:53:25;;;;;;;17.13;2.45;;;;;;;5.20;100.00;99620.97;4913723;29;20501;-73
2022/01/09 10:56:15;;;;;;;14.95;2.60;;;;;;;4.85;100.00;99587.28;4948869;23;20496;-72
2022/01/09 10:58:44;;;;;;;19.33;2.60;;;;;;;4.93;100.00;99585.72;4952785;28;20042;-74
2022/01/09 11:01:42;;;;;;;13.65;2.40;;;;;;;5.70;100.00;99628.16;4971637;28;20355;-73
2022/01/09 11:04:08;;;;;;;17.52;2.75;;;;;;;5.47;100.00;99636.16;4894128;29;20036;-72
2022/01/09 11:06:43;;;;;;;16.73;2.17;;;;;;;5.29;100.00;99633.34;4905378;29;20040;-73
2022/01/09 11:09:09;;;;;;;15.43;2.55;;;;;;;4.98;100.00;99629.81;4888751;29;20028;-72
2022/01/09 11:11:39;;;;;;;7.00;1.40;;;;;;;4.82;100.00;99630.22;4893415;29;20654;-72
2022/01/09 11:14:09;;;;;;;7.10;1.15;;;;;;;4.46;100.00;99653.16;4878950;29;20039;-72
2022/01/09 11:16:37;;;;;;;6.63;1.25;;;;;;;4.43;100.00;99655.19;4905554;29;20032;-73
2022/01/09 11:19:14;;;;;;;7.53;1.40;;;;;;;4.16;100.00;99643.38;4894465;29;20024;-73
2022/01/09 11:21:45;;;;;;;7.85;1.50;;;;;;;3.88;100.00;99645.50;4864838;29;20104;-72
2022/01/09 11:24:11;;;;;;;8.88;1.42;;;;;;;4.18;100.00;99675.44;4892207;29;20032;-71
2022/01/09 11:27:25;;;;;;;7.30;1.52;;;;;;;3.87;100.00;99653.47;4890455;29;20547;-72
2022/01/09 11:30:21;;;;;;;5.55;1.30;;;;;;;3.50;100.00;99687.63;4888812;29;20135;-73
2022/01/09 11:33:06;;;;;;;8.65;1.63;;;;;;;3.57;100.00;99691.41;4893063;29;20041;-72
2022/01/09 11:35:56;;;;;;;6.53;1.10;;;;;;;3.42;100.00;99677.72;4902698;29;20036;-74